• Join FlightAware (Why Join?)
  • Login
  • US Flag 
12:14AM EDT


 

Airport Tracker/Info


-or-


 

Live Flight TrackerFlight Track Log ✈ EJM98 ✈ 02-Sep-2013 ✈ KBWI - KATW

Flight Track Log - Related Links

Times and Time Zones

All times are in EDT time to prevent confusion due to time zone crossing. See the EJM98 flight status page for this flight to view local times or setup timezone preferences in your user account.

Time Position Orientation Groundspeed Altitude Reporting Facility
EDT Latitude Longitude Course Direction KTS MPH feet Rate Location/Type
02:56PM 39.2333 -76.7333 322° Northwest 241 277 3,500  Level Potomac TRACON
02:57PM 39.2333 -76.8167 270° West 277 319 7,700 3,180 Climbing Potomac TRACON
02:58PM 39.2667 -76.9167 293° West 281 323 9,900 1,980 Climbing Potomac TRACON
03:01PM 39.3386 -77.1775 290° West 341 392 14,800 2,040 Climbing Washington Center
03:02PM 39.3491 -77.2824 322° Northwest  Level FlightAware Approximate
03:02PM 39.3744 -77.2992 291° West 354 407 17,100  Level Washington Center
03:03PM 39.4081 -77.4208 290° West 354 407 20,100 2,700 Climbing Washington Center
03:04PM 39.4456 -77.5533 290° West 371 427 22,600 2,220 Climbing Washington Center
03:05PM 39.4872 -77.6861 292° West 392 451 25,100 2,460 Climbing Washington Center
03:06PM 39.5342 -77.8492 291° West 397 457 28,100 2,520 Climbing Washington Center
03:07PM 39.5753 -77.9850 291° West 402 463 30,200 1,860 Climbing Washington Center
03:08PM 39.6264 -78.1492 292° West 410 472 32,000 840 Climbing Cleveland Center
03:09PM 39.6689 -78.2906 291° West 415 478 32,000 300 Level Cleveland Center
03:10PM 39.7114 -78.4378 291° West 427 491 32,700 1,140 Climbing Cleveland Center
03:11PM 39.7556 -78.5822 292° West 427 491 34,300 1,140 Climbing Cleveland Center
03:12PM 39.7869 -78.7108 288° West 427 491 35,000 840 Climbing Cleveland Center
03:13PM 39.8289 -78.8556 291° West 427 491 36,000 480 Climbing Cleveland Center
03:14PM 39.8769 -79.0086 292° West 427 491 36,000  Level Cleveland Center
03:15PM 39.9164 -79.1511 290° West 427 491 36,000  Level Cleveland Center
03:16PM 39.9556 -79.2886 290° West 420 483 36,000  Level Cleveland Center
03:17PM 40.0050 -79.4203 296° West 415 478 36,000  Level Cleveland Center
03:18PM 40.0728 -79.5494 304° West 415 478 36,000  Level Cleveland Center
03:19PM 40.1386 -79.6761 304° West 420 483 36,100 480 Climbing Cleveland Center
03:20PM 40.2042 -79.8056 304° West 425 489 37,000 780 Climbing Cleveland Center
03:21PM 40.2675 -79.9300 304° West 430 495 37,700 480 Climbing Cleveland Center
03:22PM 40.3222 -80.0467 302° West 430 495 38,000 120 Climbing Cleveland Center
03:23PM 40.3833 -80.1661 304° West 425 489 38,000  Level Cleveland Center
03:24PM 40.4461 -80.2803 306° West 402 463 38,000 300 Level Cleveland Center
03:25PM 40.5361 -80.3728 322° Northwest 395 455 38,700 960 Climbing Cleveland Center
03:26PM 40.6258 -80.4736 320° Northwest 395 455 40,000 600 Climbing Cleveland Center
03:27PM 40.7072 -80.5775 316° Northwest 395 455 40,000  Level Cleveland Center
03:28PM 40.7989 -80.6872 318° Northwest 414 476 40,000  Level Cleveland Center
03:29PM 40.8694 -80.7917 312° West 422 486 40,000  Level Cleveland Center
03:30PM 40.9275 -80.9211 301° West 422 486 40,000  Level Cleveland Center
03:31PM 40.9856 -81.0644 298° West 404 465 40,000  Level Cleveland Center
03:32PM 41.0350 -81.1778 300° West 396 456 40,000  Level Cleveland Center
03:33PM 41.0906 -81.3078 300° West 396 456 40,000  Level Cleveland Center
03:34PM 41.1500 -81.4325 302° West 401 461 40,000  Level Cleveland Center
03:35PM 41.2053 -81.5600 300° West 401 461 40,000  Level Cleveland Center
03:36PM 41.2625 -81.6936 300° West 406 467 40,000  Level Cleveland Center
03:37PM 41.3175 -81.8272 299° West 406 467 40,000  Level Cleveland Center
03:38PM 41.3742 -81.9611 299° West 411 473 40,000  Level Cleveland Center
03:39PM 41.4369 -82.1119 299° West 422 486 40,000  Level Cleveland Center
03:40PM 41.4872 -82.2353 299° West 422 486 40,000  Level Cleveland Center
03:41PM 41.5436 -82.3697 299° West 417 480 40,000  Level Cleveland Center
03:42PM 41.6000 -82.5019 300° West 417 480 40,000  Level Cleveland Center
03:43PM 41.6578 -82.6453 298° West 417 480 40,000  Level Cleveland Center
03:44PM 41.7117 -82.7806 298° West 411 473 40,000  Level Cleveland Center
03:45PM 41.7672 -82.9161 299° West 411 473 40,000  Level Cleveland Center
03:46PM 41.8228 -83.0519 299° West 411 473 40,000  Level Cleveland Center
03:47PM 41.8783 -83.1825 300° West 411 473 40,000  Level Cleveland Center
03:48PM 41.9356 -83.3242 299° West 422 486 40,000  Level Cleveland Center
03:49PM 41.9886 -83.4578 298° West 417 480 40,000  Level Cleveland Center
03:50PM 42.0414 -83.5944 298° West 417 480 40,000  Level Cleveland Center
03:51PM 42.0903 -83.7144 299° West 417 480 40,000  Level Cleveland Center
03:52PM 42.1450 -83.8486 299° West 417 480 40,000  Level Cleveland Center
03:53PM 42.1992 -83.9861 298° West 417 480 40,000  Level Cleveland Center
03:54PM 42.2536 -84.1181 299° West 417 480 40,000  Level Cleveland Center
03:56PM 42.3533 -84.3689 298° West 410 472 40,000  Level Chicago Center
03:57PM 42.4078 -84.5047 299° West 411 473 40,000  Level Chicago Center
03:58PM 42.4614 -84.6453 297° West 409 471 40,000  Level Chicago Center
03:59PM 42.5222 -84.8017 298° West 407 468 40,000  Level Chicago Center
04:00PM 42.5747 -84.9369 298° West 406 467 40,000  Level Chicago Center
04:01PM 42.6267 -85.0717 298° West 404 465 40,000  Level Chicago Center
04:02PM 42.6775 -85.2067 297° West 403 464 40,000  Level Chicago Center
04:03PM 42.7278 -85.3419 297° West 402 463 40,000  Level Chicago Center
04:04PM 42.7792 -85.4775 297° West 404 465 40,000  Level Chicago Center
04:05PM 42.8547 -85.6286 304° West 405 466 40,000 -420 Level Chicago Center
04:06PM 42.9178 -85.7536 305° West 403 464 39,200 -1,020 Descending Chicago Center
04:07PM 42.9769 -85.8700 305° West 405 466 38,000 -1,440 Descending Chicago Center
04:08PM 43.0428 -85.9944 306° West 407 468 36,300 -1,800 Descending Chicago Center
04:09PM 43.1189 -86.1528 303° West 423 487 34,300 -2,040 Descending Chicago Center
04:11PM 43.1822 -86.2797 304° West 409 471 32,100 -2,460 Descending Chicago Center
04:12PM 43.2592 -86.3783 317° Northwest 386 444 29,300 -2,760 Descending Chicago Center
04:13PM 43.3486 -86.4528 329° Northwest 378 435 26,400 -2,460 Descending Chicago Center
04:14PM 43.4219 -86.5525 315° West 378 435 24,300 -2,760 Descending Chicago Center
04:15PM 43.4864 -86.7028 301° West 377 434 20,800 -2,760 Descending Chicago Center
04:16PM 43.5383 -86.8228 301° West 365 420 18,600 -2,040 Descending Chicago Center
04:17PM 43.5900 -86.9403 301° West 361 415 16,600 -1,920 Descending Chicago Center
04:18PM 43.6406 -87.0544 301° West 351 404 14,700 -1,620 Descending Chicago Center
04:19PM 43.6878 -87.1664 300° West 340 391 13,300 -1,440 Descending Chicago Center
04:20PM 43.7364 -87.2719 303° West 331 381 11,800 -1,500 Descending Chicago Center
04:21PM 43.7911 -87.4053 300° West 322 371 10,200 -1,020 Descending Chicago Center
04:22PM 43.8331 -87.5017 301° West 295 339 9,700 -1,020 Descending Chicago Center
04:23PM 43.8683 -87.5861 300° West 257 296 8,100 -960 Descending Chicago Center
04:24PM 43.8928 -87.6425 301° West 257 296 8,100  Level Minneapolis Center
04:25PM 43.9297 -87.7303 300° West 262 302 8,100 -600 Level Minneapolis Center
04:26PM 43.9667 -87.8189 300° West 264 304 6,900 -1,560 Descending Minneapolis Center
04:27PM 44.0042 -87.9056 301° West 264 304 4,900 -1,800 Descending Minneapolis Center
04:28PM 44.0389 -87.9867 301° West 255 293 3,200 -960 Descending Minneapolis Center
04:29PM 44.0778 -88.0825 299° West 249 287 3,000 -120 Descending Minneapolis Center
04:30PM 44.1125 -88.1639 301° West 246 283 3,000  Level Minneapolis Center
04:31PM 44.1356 -88.2522 290° West 245 282 3,100  Climbing Minneapolis Center
04:32PM 44.1556 -88.3403 288° West 243 280 3,000  Descending Minneapolis Center
04:33PM 44.1761 -88.4361 287° West 233 268 3,100 -300 Climbing Minneapolis Center
04:34PM 44.1931 -88.5033 289° West 212 244 2,400 -780 Descending Minneapolis Center
04:35PM 44.2167 -88.5472 307° West 173 199 1,600 -540 Descending Minneapolis Center
04:36PM 44.2594 -88.5181 26° Northeast 164 189 1,400 -240 Descending Minneapolis Center